Terminal Aerodrome Forecast
Issued by NWS

Home | Current Version | Previous Version | Text Only | Print | Product List | Glossary On
Versions: 1 2 3 4 5 6 7 8 9 10 11 12 13 14
000
FTUS43 KGRR 261410 AAA
TAFJXN
TAF AMD
KJXN 261410Z 2614/2712 20009G15KT P6SM BKN015
     FM261900 20010G18KT 5SM -TSRA BR BKN050CB
     FM262300 19009KT P6SM SCT050
     FM270400 17004KT 4SM BR BKN250
     FM270900 16003KT 2SM BR SCT009=

USA.gov is the U.S. government's official web portal to all federal, state and local government web resources and services.